sensor_id;sensor_type;location;lat;lon;timestamp;pressure;altitude;pressure_sealevel;temperature;humidity
5413;BME280;2729;50.056;8.678;2022-10-16T00:02:07;100010.59;;;17.84;100.00
5413;BME280;2729;50.056;8.678;2022-10-16T00:04:33;100013.97;;;17.72;100.00
5413;BME280;2729;50.056;8.678;2022-10-16T00:06:59;100008.00;;;17.68;100.00
5413;BME280;2729;50.056;8.678;2022-10-16T00:09:25;100000.41;;;17.78;100.00
5413;BME280;2729;50.056;8.678;2022-10-16T00:11:51;99995.31;;;17.75;100.00
5413;BME280;2729;50.056;8.678;2022-10-16T00:14:17;99995.31;;;17.75;100.00
5413;BME280;2729;50.056;8.678;2022-10-16T00:16:43;99992.84;;;17.72;100.00
5413;BME280;2729;50.056;8.678;2022-10-16T00:19:10;99991.53;;;17.79;100.00
5413;BME280;2729;50.056;8.678;2022-10-16T00:21:37;99979.94;;;17.81;100.00
5413;BME280;2729;50.056;8.678;2022-10-16T00:24:06;99989.66;;;17.81;100.00
5413;BME280;2729;50.056;8.678;2022-10-16T00:26:35;100005.50;;;17.81;100.00
5413;BME280;2729;50.056;8.678;2022-10-16T00:29:01;100003.63;;;17.83;100.00
5413;BME280;2729;50.056;8.678;2022-10-16T00:31:28;100011.81;;;17.78;100.00
5413;BME280;2729;50.056;8.678;2022-10-16T00:33:55;100001.56;;;17.88;100.00
5413;BME280;2729;50.056;8.678;2022-10-16T00:36:23;100005.53;;;17.95;100.00
5413;BME280;2729;50.056;8.678;2022-10-16T00:38:51;100008.91;;;17.83;100.00
5413;BME280;2729;50.056;8.678;2022-10-16T00:41:21;100003.44;;;17.86;100.00
5413;BME280;2729;50.056;8.678;2022-10-16T00:43:52;100002.22;;;17.91;100.00
5413;BME280;2729;50.056;8.678;2022-10-16T00:46:21;100004.28;;;17.86;100.00
5413;BME280;2729;50.056;8.678;2022-10-16T00:48:52;100010.22;;;17.90;100.00
5413;BME280;2729;50.056;8.678;2022-10-16T00:51:24;100003.34;;;17.87;100.00
5413;BME280;2729;50.056;8.678;2022-10-16T00:53:51;99996.84;;;17.93;100.00
5413;BME280;2729;50.056;8.678;2022-10-16T00:56:17;100002.53;;;18.01;100.00
5413;BME280;2729;50.056;8.678;2022-10-16T00:58:44;100000.28;;;18.09;100.00
5413;BME280;2729;50.056;8.678;2022-10-16T01:01:10;99992.13;;;17.98;100.00
5413;BME280;2729;50.056;8.678;2022-10-16T01:03:36;100000.53;;;18.05;100.00
5413;BME280;2729;50.056;8.678;2022-10-16T01:06:10;100002.13;;;17.93;100.00
5413;BME280;2729;50.056;8.678;2022-10-16T01:09:02;100001.31;;;18.07;100.00
5413;BME280;2729;50.056;8.678;2022-10-16T01:14:15;100016.56;;;17.87;100.00
5413;BME280;2729;50.056;8.678;2022-10-16T01:17:15;100030.72;;;18.00;100.00
5413;BME280;2729;50.056;8.678;2022-10-16T01:20:00;100042.22;;;17.99;100.00
5413;BME280;2729;50.056;8.678;2022-10-16T01:23:27;100041.91;;;17.90;100.00
5413;BME280;2729;50.056;8.678;2022-10-16T01:25:35;100034.66;;;17.93;100.00
5413;BME280;2729;50.056;8.678;2022-10-16T01:28:05;100037.81;;;18.00;100.00
5413;BME280;2729;50.056;8.678;2022-10-16T01:30:36;100035.88;;;17.88;100.00
5413;BME280;2729;50.056;8.678;2022-10-16T01:33:19;100037.31;;;17.93;100.00
5413;BME280;2729;50.056;8.678;2022-10-16T01:35:51;100033.19;;;18.04;100.00
5413;BME280;2729;50.056;8.678;2022-10-16T01:38:34;100026.50;;;18.12;100.00
5413;BME280;2729;50.056;8.678;2022-10-16T01:41:05;100024.69;;;17.98;100.00
5413;BME280;2729;50.056;8.678;2022-10-16T01:43:39;100030.34;;;18.07;100.00
5413;BME280;2729;50.056;8.678;2022-10-16T01:46:08;100031.56;;;18.01;100.00
5413;BME280;2729;50.056;8.678;2022-10-16T01:48:36;100013.84;;;18.03;100.00
5413;BME280;2729;50.056;8.678;2022-10-16T01:51:06;100011.03;;;18.06;100.00
5413;BME280;2729;50.056;8.678;2022-10-16T01:53:34;100013.50;;;17.79;100.00
5413;BME280;2729;50.056;8.678;2022-10-16T01:56:03;100027.38;;;17.83;100.00
5413;BME280;2729;50.056;8.678;2022-10-16T01:58:33;100032.75;;;17.81;100.00
5413;BME280;2729;50.056;8.678;2022-10-16T02:01:02;100042.72;;;17.76;100.00
5413;BME280;2729;50.056;8.678;2022-10-16T02:03:32;100043.75;;;17.58;100.00
5413;BME280;2729;50.056;8.678;2022-10-16T02:05:59;100050.66;;;17.60;100.00
5413;BME280;2729;50.056;8.678;2022-10-16T02:08:26;100047.94;;;17.62;100.00
5413;BME280;2729;50.056;8.678;2022-10-16T02:10:57;100048.88;;;17.77;100.00
5413;BME280;2729;50.056;8.678;2022-10-16T02:16:06;100046.75;;;17.67;100.00
5413;BME280;2729;50.056;8.678;2022-10-16T02:18:32;100045.19;;;17.63;100.00
5413;BME280;2729;50.056;8.678;2022-10-16T02:21:19;100049.44;;;17.82;100.00
5413;BME280;2729;50.056;8.678;2022-10-16T02:23:51;100047.66;;;17.82;100.00
5413;BME280;2729;50.056;8.678;2022-10-16T02:26:41;100060.34;;;17.60;100.00
5413;BME280;2729;50.056;8.678;2022-10-16T02:29:12;100064.97;;;17.72;100.00
5413;BME280;2729;50.056;8.678;2022-10-16T02:31:44;100042.56;;;17.79;100.00
5413;BME280;2729;50.056;8.678;2022-10-16T02:34:13;100047.19;;;17.90;100.00
5413;BME280;2729;50.056;8.678;2022-10-16T02:36:41;100043.59;;;17.77;100.00
5413;BME280;2729;50.056;8.678;2022-10-16T02:39:08;100047.97;;;17.92;100.00
5413;BME280;2729;50.056;8.678;2022-10-16T02:41:35;100051.91;;;17.85;100.00
5413;BME280;2729;50.056;8.678;2022-10-16T02:44:01;100058.75;;;17.57;100.00
5413;BME280;2729;50.056;8.678;2022-10-16T02:46:27;100060.63;;;17.71;100.00
5413;BME280;2729;50.056;8.678;2022-10-16T02:48:53;100063.19;;;17.73;100.00
5413;BME280;2729;50.056;8.678;2022-10-16T02:51:19;100046.50;;;17.72;100.00
5413;BME280;2729;50.056;8.678;2022-10-16T02:53:45;100054.63;;;17.83;100.00
5413;BME280;2729;50.056;8.678;2022-10-16T02:56:11;100057.53;;;17.63;100.00
5413;BME280;2729;50.056;8.678;2022-10-16T02:58:37;100059.25;;;17.80;100.00
5413;BME280;2729;50.056;8.678;2022-10-16T03:01:03;100062.69;;;17.66;100.00
5413;BME280;2729;50.056;8.678;2022-10-16T03:03:29;100062.25;;;17.74;100.00
5413;BME280;2729;50.056;8.678;2022-10-16T03:05:55;100071.69;;;17.78;100.00
5413;BME280;2729;50.056;8.678;2022-10-16T03:08:21;100074.84;;;17.68;100.00
5413;BME280;2729;50.056;8.678;2022-10-16T03:10:50;100074.00;;;17.68;100.00
5413;BME280;2729;50.056;8.678;2022-10-16T03:13:16;100073.13;;;17.83;100.00
5413;BME280;2729;50.056;8.678;2022-10-16T03:15:42;100074.50;;;17.75;100.00
5413;BME280;2729;50.056;8.678;2022-10-16T03:18:08;100069.72;;;17.81;100.00
5413;BME280;2729;50.056;8.678;2022-10-16T03:20:34;100074.81;;;17.84;100.00
5413;BME280;2729;50.056;8.678;2022-10-16T03:23:00;100074.47;;;17.90;100.00
5413;BME280;2729;50.056;8.678;2022-10-16T03:25:25;100073.13;;;17.83;100.00
5413;BME280;2729;50.056;8.678;2022-10-16T03:27:51;100079.06;;;17.87;100.00
5413;BME280;2729;50.056;8.678;2022-10-16T03:30:17;100084.34;;;17.87;100.00
5413;BME280;2729;50.056;8.678;2022-10-16T03:32:44;100080.53;;;17.77;100.00
5413;BME280;2729;50.056;8.678;2022-10-16T03:35:10;100086.94;;;17.73;100.00
5413;BME280;2729;50.056;8.678;2022-10-16T03:37:36;100090.34;;;17.75;100.00
5413;BME280;2729;50.056;8.678;2022-10-16T03:40:03;100081.81;;;17.85;100.00
5413;BME280;2729;50.056;8.678;2022-10-16T03:42:29;100081.81;;;17.85;100.00
5413;BME280;2729;50.056;8.678;2022-10-16T03:44:55;100072.25;;;17.83;100.00
5413;BME280;2729;50.056;8.678;2022-10-16T03:47:21;100079.44;;;17.81;100.00
5413;BME280;2729;50.056;8.678;2022-10-16T03:49:49;100087.44;;;17.63;100.00
5413;BME280;2729;50.056;8.678;2022-10-16T03:52:16;100086.13;;;17.86;100.00
5413;BME280;2729;50.056;8.678;2022-10-16T03:54:42;100095.09;;;17.84;100.00
5413;BME280;2729;50.056;8.678;2022-10-16T03:57:08;100103.19;;;17.81;100.00
5413;BME280;2729;50.056;8.678;2022-10-16T03:59:34;100085.66;;;17.80;100.00
5413;BME280;2729;50.056;8.678;2022-10-16T04:02:00;100083.13;;;17.92;100.00
5413;BME280;2729;50.056;8.678;2022-10-16T04:04:26;100094.66;;;17.91;100.00
5413;BME280;2729;50.056;8.678;2022-10-16T04:06:52;100096.88;;;17.83;100.00
5413;BME280;2729;50.056;8.678;2022-10-16T04:09:18;100093.88;;;17.89;100.00
5413;BME280;2729;50.056;8.678;2022-10-16T04:11:44;100082.78;;;17.98;100.00
5413;BME280;2729;50.056;8.678;2022-10-16T04:14:10;100075.91;;;17.96;100.00
5413;BME280;2729;50.056;8.678;2022-10-16T04:16:36;100087.75;;;17.89;100.00
5413;BME280;2729;50.056;8.678;2022-10-16T04:19:02;100103.38;;;17.78;100.00
5413;BME280;2729;50.056;8.678;2022-10-16T04:21:28;100107.63;;;17.80;100.00
5413;BME280;2729;50.056;8.678;2022-10-16T04:23:54;100109.47;;;17.62;100.00
5413;BME280;2729;50.056;8.678;2022-10-16T04:26:19;100104.13;;;17.80;100.00
5413;BME280;2729;50.056;8.678;2022-10-16T04:28:46;100114.28;;;17.72;100.00
5413;BME280;2729;50.056;8.678;2022-10-16T04:31:12;100126.19;;;17.79;100.00
5413;BME280;2729;50.056;8.678;2022-10-16T04:33:38;100119.03;;;17.81;100.00
5413;BME280;2729;50.056;8.678;2022-10-16T04:36:04;100107.66;;;17.94;100.00
5413;BME280;2729;50.056;8.678;2022-10-16T04:38:30;100108.25;;;17.99;100.00
5413;BME280;2729;50.056;8.678;2022-10-16T04:40:56;100111.66;;;18.02;100.00
5413;BME280;2729;50.056;8.678;2022-10-16T04:43:22;100104.28;;;17.92;100.00
5413;BME280;2729;50.056;8.678;2022-10-16T04:45:48;100109.28;;;17.97;100.00
5413;BME280;2729;50.056;8.678;2022-10-16T04:48:17;100109.06;;;17.86;100.00
5413;BME280;2729;50.056;8.678;2022-10-16T04:50:42;100109.63;;;17.91;100.00
5413;BME280;2729;50.056;8.678;2022-10-16T04:53:08;100109.66;;;17.75;100.00
5413;BME280;2729;50.056;8.678;2022-10-16T04:55:34;100103.41;;;17.92;100.00
5413;BME280;2729;50.056;8.678;2022-10-16T04:58:00;100110.44;;;17.77;100.00
5413;BME280;2729;50.056;8.678;2022-10-16T05:00:26;100101.28;;;17.98;100.00
5413;BME280;2729;50.056;8.678;2022-10-16T05:02:52;100119.66;;;18.00;100.00
5413;BME280;2729;50.056;8.678;2022-10-16T05:05:18;100120.53;;;18.00;100.00
5413;BME280;2729;50.056;8.678;2022-10-16T05:07:48;100126.16;;;17.94;100.00
5413;BME280;2729;50.056;8.678;2022-10-16T05:10:15;100118.50;;;17.90;100.00
5413;BME280;2729;50.056;8.678;2022-10-16T05:12:41;100123.44;;;17.96;100.00
5413;BME280;2729;50.056;8.678;2022-10-16T05:15:08;100125.13;;;17.97;100.00
5413;BME280;2729;50.056;8.678;2022-10-16T05:17:34;100125.31;;;17.94;100.00
5413;BME280;2729;50.056;8.678;2022-10-16T05:20:00;100124.38;;;17.95;100.00
5413;BME280;2729;50.056;8.678;2022-10-16T05:22:26;100136.72;;;17.94;100.00
5413;BME280;2729;50.056;8.678;2022-10-16T05:24:52;100131.34;;;17.96;100.00
5413;BME280;2729;50.056;8.678;2022-10-16T05:27:18;100127.94;;;17.94;100.00
5413;BME280;2729;50.056;8.678;2022-10-16T05:29:46;100124.63;;;17.90;100.00
5413;BME280;2729;50.056;8.678;2022-10-16T05:32:15;100135.63;;;17.83;100.00
5413;BME280;2729;50.056;8.678;2022-10-16T05:34:42;100133.75;;;17.85;100.00
5413;BME280;2729;50.056;8.678;2022-10-16T05:37:08;100128.47;;;17.85;100.00
5413;BME280;2729;50.056;8.678;2022-10-16T05:39:34;100119.78;;;17.83;100.00
5413;BME280;2729;50.056;8.678;2022-10-16T05:42:02;100108.03;;;17.88;100.00
5413;BME280;2729;50.056;8.678;2022-10-16T05:44:29;100110.16;;;17.82;100.00
5413;BME280;2729;50.056;8.678;2022-10-16T05:46:54;100111.47;;;17.75;100.00
5413;BME280;2729;50.056;8.678;2022-10-16T05:49:22;100111.47;;;17.75;100.00
5413;BME280;2729;50.056;8.678;2022-10-16T05:51:49;100126.44;;;17.74;100.00
5413;BME280;2729;50.056;8.678;2022-10-16T05:59:46;100139.22;;;17.82;100.00
5413;BME280;2729;50.056;8.678;2022-10-16T06:02:13;100161.44;;;17.78;100.00
5413;BME280;2729;50.056;8.678;2022-10-16T06:04:40;100164.09;;;17.78;100.00
5413;BME280;2729;50.056;8.678;2022-10-16T06:07:07;100164.91;;;17.62;100.00
5413;BME280;2729;50.056;8.678;2022-10-16T06:09:33;100167.06;;;17.72;100.00
5413;BME280;2729;50.056;8.678;2022-10-16T06:11:59;100171.66;;;17.68;100.00
5413;BME280;2729;50.056;8.678;2022-10-16T06:14:25;100175.84;;;17.72;100.00
5413;BME280;2729;50.056;8.678;2022-10-16T06:16:51;100176.69;;;17.73;100.00
5413;BME280;2729;50.056;8.678;2022-10-16T06:19:17;100177.88;;;17.83;100.00
5413;BME280;2729;50.056;8.678;2022-10-16T06:21:44;100182.41;;;17.81;100.00
5413;BME280;2729;50.056;8.678;2022-10-16T06:24:10;100182.03;;;17.87;100.00
5413;BME280;2729;50.056;8.678;2022-10-16T06:26:37;100184.09;;;17.82;100.00
5413;BME280;2729;50.056;8.678;2022-10-16T06:29:03;100191.00;;;17.84;100.00
5413;BME280;2729;50.056;8.678;2022-10-16T06:31:29;100198.31;;;17.95;100.00
5413;BME280;2729;50.056;8.678;2022-10-16T06:33:59;100189.88;;;18.04;100.00
5413;BME280;2729;50.056;8.678;2022-10-16T06:36:27;100186.19;;;18.07;100.00
5413;BME280;2729;50.056;8.678;2022-10-16T06:38:53;100179.31;;;18.04;100.00
5413;BME280;2729;50.056;8.678;2022-10-16T06:41:21;100175.47;;;18.10;100.00
5413;BME280;2729;50.056;8.678;2022-10-16T06:43:47;100166.50;;;18.12;100.00
5413;BME280;2729;50.056;8.678;2022-10-16T06:46:16;100177.84;;;18.14;100.00
5413;BME280;2729;50.056;8.678;2022-10-16T06:48:42;100185.09;;;18.11;100.00
5413;BME280;2729;50.056;8.678;2022-10-16T06:51:11;100185.50;;;18.19;100.00
5413;BME280;2729;50.056;8.678;2022-10-16T06:53:41;100180.91;;;18.22;100.00
5413;BME280;2729;50.056;8.678;2022-10-16T06:58:37;100191.97;;;18.13;100.00
5413;BME280;2729;50.056;8.678;2022-10-16T07:06:41;100201.97;;;18.24;100.00
5413;BME280;2729;50.056;8.678;2022-10-16T07:09:09;100201.53;;;18.31;100.00
5413;BME280;2729;50.056;8.678;2022-10-16T07:11:37;100207.75;;;18.30;100.00
5413;BME280;2729;50.056;8.678;2022-10-16T07:14:04;100217.03;;;18.38;100.00
5413;BME280;2729;50.056;8.678;2022-10-16T07:16:32;100221.53;;;18.36;100.00
5413;BME280;2729;50.056;8.678;2022-10-16T07:19:00;100220.44;;;18.40;100.00
5413;BME280;2729;50.056;8.678;2022-10-16T07:21:32;100229.81;;;18.29;100.00
5413;BME280;2729;50.056;8.678;2022-10-16T07:24:01;100222.88;;;18.43;100.00
5413;BME280;2729;50.056;8.678;2022-10-16T07:26:28;100230.31;;;18.36;100.00
5413;BME280;2729;50.056;8.678;2022-10-16T07:28:56;100243.00;;;18.45;100.00
5413;BME280;2729;50.056;8.678;2022-10-16T07:31:24;100246.31;;;18.49;100.00
5413;BME280;2729;50.056;8.678;2022-10-16T07:33:51;100240.84;;;18.52;100.00
5413;BME280;2729;50.056;8.678;2022-10-16T07:36:19;100249.63;;;18.52;100.00
5413;BME280;2729;50.056;8.678;2022-10-16T07:38:48;100248.19;;;18.47;100.00
5413;BME280;2729;50.056;8.678;2022-10-16T07:41:16;100258.03;;;18.29;100.00
5413;BME280;2729;50.056;8.678;2022-10-16T07:43:47;100263.28;;;18.45;100.00
5413;BME280;2729;50.056;8.678;2022-10-16T07:46:14;100265.78;;;18.32;100.00
5413;BME280;2729;50.056;8.678;2022-10-16T07:48:42;100269.19;;;18.34;100.00
5413;BME280;2729;50.056;8.678;2022-10-16T07:51:11;100267.81;;;18.43;100.00
5413;BME280;2729;50.056;8.678;2022-10-16T07:53:38;100277.22;;;18.33;100.00
5413;BME280;2729;50.056;8.678;2022-10-16T07:56:06;100267.72;;;18.44;100.00
5413;BME280;2729;50.056;8.678;2022-10-16T07:58:33;100277.88;;;18.52;100.00
5413;BME280;2729;50.056;8.678;2022-10-16T08:01:03;100266.69;;;18.47;100.00
5413;BME280;2729;50.056;8.678;2022-10-16T08:03:31;100272.56;;;18.52;100.00
5413;BME280;2729;50.056;8.678;2022-10-16T08:05:57;100283.25;;;18.50;100.00
5413;BME280;2729;50.056;8.678;2022-10-16T08:11:06;100295.88;;;18.61;100.00
5413;BME280;2729;50.056;8.678;2022-10-16T08:13:32;100304.13;;;18.55;100.00
5413;BME280;2729;50.056;8.678;2022-10-16T08:15:59;100310.34;;;18.54;100.00
5413;BME280;2729;50.056;8.678;2022-10-16T08:18:25;100309.09;;;18.61;100.00
5413;BME280;2729;50.056;8.678;2022-10-16T08:20:56;100317.44;;;18.38;100.00
5413;BME280;2729;50.056;8.678;2022-10-16T08:23:23;100321.59;;;18.57;100.00
5413;BME280;2729;50.056;8.678;2022-10-16T08:25:49;100316.66;;;18.67;100.00
5413;BME280;2729;50.056;8.678;2022-10-16T08:28:15;100316.13;;;18.60;100.00
5413;BME280;2729;50.056;8.678;2022-10-16T08:30:42;100323.91;;;18.63;100.00
5413;BME280;2729;50.056;8.678;2022-10-16T08:33:08;100332.44;;;18.69;100.00
5413;BME280;2729;50.056;8.678;2022-10-16T08:35:34;100334.47;;;18.79;100.00
5413;BME280;2729;50.056;8.678;2022-10-16T08:38:00;100334.47;;;18.79;100.00
5413;BME280;2729;50.056;8.678;2022-10-16T08:40:30;100344.72;;;18.70;100.00
5413;BME280;2729;50.056;8.678;2022-10-16T08:43:11;100344.91;;;18.67;100.00
5413;BME280;2729;50.056;8.678;2022-10-16T08:45:58;100352.06;;;18.65;100.00
5413;BME280;2729;50.056;8.678;2022-10-16T08:48:43;100354.44;;;18.69;100.00
5413;BME280;2729;50.056;8.678;2022-10-16T08:51:18;100365.78;;;18.71;100.00
5413;BME280;2729;50.056;8.678;2022-10-16T08:53:49;100367.84;;;18.66;100.00
5413;BME280;2729;50.056;8.678;2022-10-16T08:56:18;100366.47;;;18.75;100.00
5413;BME280;2729;50.056;8.678;2022-10-16T08:58:46;100373.72;;;18.71;100.00
5413;BME280;2729;50.056;8.678;2022-10-16T09:01:15;100370.56;;;18.80;100.00
5413;BME280;2729;50.056;8.678;2022-10-16T09:03:57;100371.75;;;18.75;100.00
5413;BME280;2729;50.056;8.678;2022-10-16T09:06:42;100372.53;;;18.77;100.00
5413;BME280;2729;50.056;8.678;2022-10-16T09:09:43;100383.94;;;18.46;100.00
5413;BME280;2729;50.056;8.678;2022-10-16T09:12:25;100383.19;;;18.75;100.00
5413;BME280;2729;50.056;8.678;2022-10-16T09:17:59;100385.59;;;18.64;100.00
5413;BME280;2729;50.056;8.678;2022-10-16T09:23:19;100402.38;;;18.79;100.00
5413;BME280;2729;50.056;8.678;2022-10-16T09:25:49;100407.25;;;18.71;100.00
5413;BME280;2729;50.056;8.678;2022-10-16T09:28:16;100396.72;;;18.85;100.00
5413;BME280;2729;50.056;8.678;2022-10-16T09:30:43;100409.53;;;18.92;100.00
5413;BME280;2729;50.056;8.678;2022-10-16T09:33:12;100417.91;;;18.85;100.00
5413;BME280;2729;50.056;8.678;2022-10-16T09:35:48;100416.19;;;18.84;100.00
5413;BME280;2729;50.056;8.678;2022-10-16T09:38:29;100428.31;;;18.72;100.00
5413;BME280;2729;50.056;8.678;2022-10-16T09:40:57;100425.66;;;18.72;100.00
5413;BME280;2729;50.056;8.678;2022-10-16T09:43:26;100440.25;;;18.63;100.00
5413;BME280;2729;50.056;8.678;2022-10-16T09:46:02;100439.31;;;18.80;100.00
5413;BME280;2729;50.056;8.678;2022-10-16T09:48:48;100437.16;;;18.55;100.00
5413;BME280;2729;50.056;8.678;2022-10-16T09:51:26;100429.59;;;18.81;100.00
5413;BME280;2729;50.056;8.678;2022-10-16T09:53:59;100428.91;;;18.77;100.00
5413;BME280;2729;50.056;8.678;2022-10-16T09:56:28;100437.31;;;19.00;100.00
5413;BME280;2729;50.056;8.678;2022-10-16T09:58:57;100435.72;;;18.97;100.00
5413;BME280;2729;50.056;8.678;2022-10-16T10:01:29;100433.25;;;18.78;100.00
5413;BME280;2729;50.056;8.678;2022-10-16T10:03:57;100434.66;;;19.15;100.00
5413;BME280;2729;50.056;8.678;2022-10-16T10:06:31;100435.91;;;19.24;100.00
5413;BME280;2729;50.056;8.678;2022-10-16T10:09:04;100451.50;;;18.99;100.00
5413;BME280;2729;50.056;8.678;2022-10-16T10:11:40;100430.69;;;18.92;100.00
5413;BME280;2729;50.056;8.678;2022-10-16T10:19:42;100445.03;;;19.34;100.00
5413;BME280;2729;50.056;8.678;2022-10-16T10:22:26;100443.22;;;19.35;100.00
5413;BME280;2729;50.056;8.678;2022-10-16T10:24:57;100450.31;;;19.34;100.00
5413;BME280;2729;50.056;8.678;2022-10-16T10:27:37;100448.72;;;19.32;100.00
5413;BME280;2729;50.056;8.678;2022-10-16T10:39:08;100444.13;;;19.19;100.00
5413;BME280;2729;50.056;8.678;2022-10-16T10:47:24;100438.53;;;19.40;100.00
5413;BME280;2729;50.056;8.678;2022-10-16T10:50:07;100437.50;;;19.42;100.00
5413;BME280;2729;50.056;8.678;2022-10-16T10:52:58;100425.94;;;19.59;100.00
5413;BME280;2729;50.056;8.678;2022-10-16T10:55:45;100430.13;;;19.47;100.00
5413;BME280;2729;50.056;8.678;2022-10-16T11:03:46;100421.91;;;20.10;100.00
5413;BME280;2729;50.056;8.678;2022-10-16T11:06:33;100424.66;;;20.09;100.00
5413;BME280;2729;50.056;8.678;2022-10-16T11:12:20;100419.69;;;20.60;100.00
5413;BME280;2729;50.056;8.678;2022-10-16T11:15:14;100423.56;;;20.68;100.00
5413;BME280;2729;50.056;8.678;2022-10-16T11:17:48;100428.66;;;20.71;100.00
5413;BME280;2729;50.056;8.678;2022-10-16T11:20:20;100424.06;;;21.02;100.00
5413;BME280;2729;50.056;8.678;2022-10-16T11:22:52;100425.69;;;20.90;100.00
5413;BME280;2729;50.056;8.678;2022-10-16T11:25:30;100433.38;;;20.39;100.00
5413;BME280;2729;50.056;8.678;2022-10-16T11:30:31;100435.13;;;20.81;100.00
5413;BME280;2729;50.056;8.678;2022-10-16T11:35:47;100428.81;;;20.97;100.00
5413;BME280;2729;50.056;8.678;2022-10-16T11:38:38;100423.03;;;21.17;100.00
5413;BME280;2729;50.056;8.678;2022-10-16T11:41:22;100425.88;;;21.14;100.00
5413;BME280;2729;50.056;8.678;2022-10-16T11:49:32;100433.06;;;20.99;100.00
5413;BME280;2729;50.056;8.678;2022-10-16T11:54:57;100431.91;;;20.62;100.00
5413;BME280;2729;50.056;8.678;2022-10-16T11:57:32;100436.38;;;20.62;100.00
5413;BME280;2729;50.056;8.678;2022-10-16T12:00:26;100441.97;;;20.57;100.00
5413;BME280;2729;50.056;8.678;2022-10-16T12:03:15;100425.19;;;20.57;100.00
5413;BME280;2729;50.056;8.678;2022-10-16T12:08:21;100412.47;;;21.03;100.00
5413;BME280;2729;50.056;8.678;2022-10-16T12:10:48;100416.53;;;21.08;100.00
5413;BME280;2729;50.056;8.678;2022-10-16T12:16:08;100420.03;;;21.36;100.00
5413;BME280;2729;50.056;8.678;2022-10-16T12:18:46;100412.38;;;21.31;100.00
5413;BME280;2729;50.056;8.678;2022-10-16T12:21:13;100415.72;;;21.21;100.00
5413;BME280;2729;50.056;8.678;2022-10-16T12:23:55;100408.59;;;21.48;100.00
5413;BME280;2729;50.056;8.678;2022-10-16T12:26:30;100410.38;;;21.47;100.00
5413;BME280;2729;50.056;8.678;2022-10-16T12:29:13;100408.16;;;21.54;100.00
5413;BME280;2729;50.056;8.678;2022-10-16T12:31:45;100415.81;;;21.59;100.00
5413;BME280;2729;50.056;8.678;2022-10-16T12:37:21;100419.44;;;21.70;100.00
5413;BME280;2729;50.056;8.678;2022-10-16T12:39:49;100410.91;;;21.40;100.00
5413;BME280;2729;50.056;8.678;2022-10-16T12:42:21;100418.16;;;21.50;100.00
5413;BME280;2729;50.056;8.678;2022-10-16T12:44:48;100421.16;;;21.84;100.00
5413;BME280;2729;50.056;8.678;2022-10-16T12:47:23;100432.31;;;21.76;100.00
5413;BME280;2729;50.056;8.678;2022-10-16T12:49:54;100438.50;;;22.02;100.00
5413;BME280;2729;50.056;8.678;2022-10-16T12:54:59;100438.66;;;21.48;100.00
5413;BME280;2729;50.056;8.678;2022-10-16T12:57:35;100447.47;;;21.49;100.00
5413;BME280;2729;50.056;8.678;2022-10-16T13:00:24;100432.72;;;21.58;100.00
5413;BME280;2729;50.056;8.678;2022-10-16T13:09:02;100429.31;;;21.94;100.00
5413;BME280;2729;50.056;8.678;2022-10-16T13:11:57;100433.69;;;21.95;100.00
5413;BME280;2729;50.056;8.678;2022-10-16T13:14:49;100432.19;;;21.78;100.00
5413;BME280;2729;50.056;8.678;2022-10-16T13:20:21;100446.00;;;21.83;100.00
5413;BME280;2729;50.056;8.678;2022-10-16T13:23:07;100449.13;;;22.02;100.00
5413;BME280;2729;50.056;8.678;2022-10-16T13:25:43;100447.94;;;21.94;100.00
5413;BME280;2729;50.056;8.678;2022-10-16T13:28:13;100441.78;;;21.93;100.00
5413;BME280;2729;50.056;8.678;2022-10-16T13:30:42;100432.19;;;21.78;100.00
5413;BME280;2729;50.056;8.678;2022-10-16T13:33:18;100441.13;;;21.77;100.00
5413;BME280;2729;50.056;8.678;2022-10-16T13:35:49;100447.47;;;21.62;100.00
5413;BME280;2729;50.056;8.678;2022-10-16T13:38:19;100432.84;;;21.81;100.00
5413;BME280;2729;50.056;8.678;2022-10-16T13:40:56;100432.63;;;21.97;100.00
5413;BME280;2729;50.056;8.678;2022-10-16T13:43:27;100434.22;;;22.00;100.00
5413;BME280;2729;50.056;8.678;2022-10-16T13:45:58;100439.84;;;21.95;100.00
5413;BME280;2729;50.056;8.678;2022-10-16T13:48:25;100432.63;;;21.97;100.00
5413;BME280;2729;50.056;8.678;2022-10-16T13:51:02;100438.56;;;22.01;100.00
5413;BME280;2729;50.056;8.678;2022-10-16T13:53:34;100433.91;;;21.92;100.00
5413;BME280;2729;50.056;8.678;2022-10-16T13:56:03;100436.97;;;21.86;100.00
5413;BME280;2729;50.056;8.678;2022-10-16T13:58:30;100445.59;;;21.76;100.00
5413;BME280;2729;50.056;8.678;2022-10-16T14:01:03;100444.41;;;21.80;100.00
5413;BME280;2729;50.056;8.678;2022-10-16T14:03:33;100441.97;;;21.77;100.00
5413;BME280;2729;50.056;8.678;2022-10-16T14:06:05;100441.97;;;21.77;100.00
5413;BME280;2729;50.056;8.678;2022-10-16T14:08:35;100434.31;;;21.73;100.00
5413;BME280;2729;50.056;8.678;2022-10-16T14:11:20;100430.81;;;21.72;100.00
5413;BME280;2729;50.056;8.678;2022-10-16T14:13:51;100430.28;;;21.67;100.00
5413;BME280;2729;50.056;8.678;2022-10-16T14:16:31;100422.63;;;21.63;100.00
5413;BME280;2729;50.056;8.678;2022-10-16T14:19:24;100409.97;;;21.54;100.00
5413;BME280;2729;50.056;8.678;2022-10-16T14:21:54;100405.81;;;21.49;100.00
5413;BME280;2729;50.056;8.678;2022-10-16T14:24:47;100419.81;;;21.39;100.00
5413;BME280;2729;50.056;8.678;2022-10-16T14:27:34;100432.16;;;21.40;100.00
5413;BME280;2729;50.056;8.678;2022-10-16T14:30:21;100440.47;;;21.21;100.00
5413;BME280;2729;50.056;8.678;2022-10-16T14:32:59;100440.66;;;21.18;100.00
5413;BME280;2729;50.056;8.678;2022-10-16T14:35:39;100429.66;;;20.97;100.00
5413;BME280;2729;50.056;8.678;2022-10-16T14:38:15;100443.31;;;21.18;100.00
5413;BME280;2729;50.056;8.678;2022-10-16T14:40:50;100438.53;;;21.37;100.00
5413;BME280;2729;50.056;8.678;2022-10-16T14:43:31;100447.13;;;21.41;100.00
5413;BME280;2729;50.056;8.678;2022-10-16T14:46:09;100456.06;;;21.53;100.00
5413;BME280;2729;50.056;8.678;2022-10-16T14:48:43;100447.59;;;21.60;100.00
5413;BME280;2729;50.056;8.678;2022-10-16T14:51:17;100442.78;;;21.53;100.00